sensor_id;sensor_type;location;lat;lon;timestamp;P1;durP1;ratioP1;P2;durP2;ratioP2
22679;SDS011;11507;44.858;10.374;2022-12-07T00:01:40;90.93;;;40.70;;
22679;SDS011;11507;44.858;10.374;2022-12-07T00:04:07;85.25;;;38.70;;
22679;SDS011;11507;44.858;10.374;2022-12-07T00:06:37;90.80;;;41.25;;
22679;SDS011;11507;44.858;10.374;2022-12-07T00:09:06;90.45;;;39.88;;
22679;SDS011;11507;44.858;10.374;2022-12-07T00:11:34;90.90;;;42.22;;
22679;SDS011;11507;44.858;10.374;2022-12-07T00:14:01;71.22;;;35.83;;
22679;SDS011;11507;44.858;10.374;2022-12-07T00:16:29;60.83;;;29.77;;
22679;SDS011;11507;44.858;10.374;2022-12-07T00:18:56;62.28;;;30.98;;
22679;SDS011;11507;44.858;10.374;2022-12-07T00:21:29;59.05;;;30.10;;
22679;SDS011;11507;44.858;10.374;2022-12-07T00:23:57;53.35;;;27.88;;
22679;SDS011;11507;44.858;10.374;2022-12-07T00:26:25;55.90;;;28.90;;
22679;SDS011;11507;44.858;10.374;2022-12-07T00:28:59;56.35;;;28.13;;
22679;SDS011;11507;44.858;10.374;2022-12-07T00:31:28;51.03;;;27.27;;
22679;SDS011;11507;44.858;10.374;2022-12-07T00:33:58;53.35;;;26.52;;
22679;SDS011;11507;44.858;10.374;2022-12-07T00:36:26;56.25;;;28.88;;
22679;SDS011;11507;44.858;10.374;2022-12-07T00:38:53;51.65;;;27.02;;
22679;SDS011;11507;44.858;10.374;2022-12-07T00:41:20;53.10;;;27.33;;
22679;SDS011;11507;44.858;10.374;2022-12-07T00:43:48;54.10;;;27.05;;
22679;SDS011;11507;44.858;10.374;2022-12-07T00:46:15;52.17;;;27.00;;
22679;SDS011;11507;44.858;10.374;2022-12-07T00:48:42;50.30;;;26.42;;
22679;SDS011;11507;44.858;10.374;2022-12-07T00:53:35;50.15;;;26.30;;
22679;SDS011;11507;44.858;10.374;2022-12-07T00:56:05;49.38;;;27.27;;
22679;SDS011;11507;44.858;10.374;2022-12-07T01:01:22;50.25;;;27.20;;
22679;SDS011;11507;44.858;10.374;2022-12-07T01:03:49;50.25;;;28.35;;
22679;SDS011;11507;44.858;10.374;2022-12-07T01:08:43;53.90;;;28.48;;
22679;SDS011;11507;44.858;10.374;2022-12-07T01:11:11;50.95;;;26.00;;
22679;SDS011;11507;44.858;10.374;2022-12-07T01:13:40;46.85;;;26.70;;
22679;SDS011;11507;44.858;10.374;2022-12-07T01:16:06;49.70;;;26.52;;
22679;SDS011;11507;44.858;10.374;2022-12-07T01:18:33;57.00;;;29.27;;
22679;SDS011;11507;44.858;10.374;2022-12-07T01:23:34;56.13;;;29.10;;
22679;SDS011;11507;44.858;10.374;2022-12-07T01:26:03;52.85;;;28.02;;
22679;SDS011;11507;44.858;10.374;2022-12-07T01:28:31;56.22;;;28.92;;
22679;SDS011;11507;44.858;10.374;2022-12-07T01:33:32;53.47;;;27.95;;
22679;SDS011;11507;44.858;10.374;2022-12-07T01:38:39;50.90;;;28.40;;
22679;SDS011;11507;44.858;10.374;2022-12-07T01:41:05;59.45;;;30.17;;
22679;SDS011;11507;44.858;10.374;2022-12-07T01:45:59;67.10;;;30.48;;
22679;SDS011;11507;44.858;10.374;2022-12-07T01:48:28;77.45;;;34.05;;
22679;SDS011;11507;44.858;10.374;2022-12-07T01:51:03;76.38;;;35.10;;
22679;SDS011;11507;44.858;10.374;2022-12-07T01:53:33;80.40;;;35.40;;
22679;SDS011;11507;44.858;10.374;2022-12-07T01:56:03;81.18;;;36.95;;
22679;SDS011;11507;44.858;10.374;2022-12-07T01:58:33;71.13;;;33.97;;
22679;SDS011;11507;44.858;10.374;2022-12-07T02:03:27;77.53;;;35.90;;
22679;SDS011;11507;44.858;10.374;2022-12-07T02:06:05;88.95;;;37.42;;
22679;SDS011;11507;44.858;10.374;2022-12-07T02:08:32;84.22;;;37.35;;
22679;SDS011;11507;44.858;10.374;2022-12-07T02:10:59;86.13;;;37.10;;
22679;SDS011;11507;44.858;10.374;2022-12-07T02:13:29;87.28;;;40.75;;
22679;SDS011;11507;44.858;10.374;2022-12-07T02:16:00;83.43;;;38.50;;
22679;SDS011;11507;44.858;10.374;2022-12-07T02:21:27;85.28;;;37.85;;
22679;SDS011;11507;44.858;10.374;2022-12-07T02:32:15;63.08;;;32.45;;
22679;SDS011;11507;44.858;10.374;2022-12-07T02:39:55;64.78;;;31.92;;
22679;SDS011;11507;44.858;10.374;2022-12-07T02:42:31;59.55;;;31.25;;
22679;SDS011;11507;44.858;10.374;2022-12-07T02:45:01;71.50;;;35.70;;
22679;SDS011;11507;44.858;10.374;2022-12-07T02:47:29;65.43;;;33.50;;
22679;SDS011;11507;44.858;10.374;2022-12-07T02:49:58;69.53;;;33.55;;
22679;SDS011;11507;44.858;10.374;2022-12-07T02:54:50;72.32;;;33.35;;
22679;SDS011;11507;44.858;10.374;2022-12-07T03:00:03;85.20;;;40.60;;
22679;SDS011;11507;44.858;10.374;2022-12-07T03:02:48;65.50;;;32.53;;
22679;SDS011;11507;44.858;10.374;2022-12-07T03:15:59;73.85;;;31.05;;
22679;SDS011;11507;44.858;10.374;2022-12-07T03:18:49;77.90;;;31.38;;
22679;SDS011;11507;44.858;10.374;2022-12-07T03:21:26;84.65;;;31.83;;
22679;SDS011;11507;44.858;10.374;2022-12-07T03:23:58;92.18;;;32.70;;
22679;SDS011;11507;44.858;10.374;2022-12-07T03:26:34;69.03;;;29.92;;
22679;SDS011;11507;44.858;10.374;2022-12-07T03:29:04;110.35;;;30.77;;
22679;SDS011;11507;44.858;10.374;2022-12-07T03:31:33;103.78;;;29.83;;
22679;SDS011;11507;44.858;10.374;2022-12-07T03:37:18;63.42;;;31.05;;
22679;SDS011;11507;44.858;10.374;2022-12-07T03:40:02;63.58;;;30.45;;
22679;SDS011;11507;44.858;10.374;2022-12-07T03:42:39;61.92;;;31.60;;
22679;SDS011;11507;44.858;10.374;2022-12-07T03:45:06;70.50;;;31.75;;
22679;SDS011;11507;44.858;10.374;2022-12-07T03:47:42;59.70;;;31.48;;
22679;SDS011;11507;44.858;10.374;2022-12-07T03:52:58;64.85;;;31.08;;
22679;SDS011;11507;44.858;10.374;2022-12-07T03:55:33;78.25;;;32.88;;
22679;SDS011;11507;44.858;10.374;2022-12-07T03:58:05;105.30;;;34.17;;
22679;SDS011;11507;44.858;10.374;2022-12-07T04:00:34;87.43;;;33.75;;
22679;SDS011;11507;44.858;10.374;2022-12-07T04:03:00;113.28;;;35.08;;
22679;SDS011;11507;44.858;10.374;2022-12-07T04:05:28;108.65;;;34.25;;
22679;SDS011;11507;44.858;10.374;2022-12-07T04:07:54;96.53;;;37.35;;
22679;SDS011;11507;44.858;10.374;2022-12-07T04:12:46;77.03;;;35.65;;
22679;SDS011;11507;44.858;10.374;2022-12-07T04:17:38;130.52;;;37.55;;
22679;SDS011;11507;44.858;10.374;2022-12-07T04:22:31;148.23;;;36.03;;
22679;SDS011;11507;44.858;10.374;2022-12-07T04:27:22;127.43;;;34.13;;
22679;SDS011;11507;44.858;10.374;2022-12-07T04:29:51;126.00;;;35.55;;
22679;SDS011;11507;44.858;10.374;2022-12-07T04:32:18;139.52;;;36.17;;
22679;SDS011;11507;44.858;10.374;2022-12-07T04:37:11;67.00;;;32.03;;
22679;SDS011;11507;44.858;10.374;2022-12-07T04:39:38;81.10;;;34.00;;
22679;SDS011;11507;44.858;10.374;2022-12-07T04:42:04;174.93;;;37.95;;
22679;SDS011;11507;44.858;10.374;2022-12-07T04:46:58;83.53;;;35.17;;
22679;SDS011;11507;44.858;10.374;2022-12-07T04:51:50;127.70;;;37.60;;
22679;SDS011;11507;44.858;10.374;2022-12-07T04:54:17;117.63;;;37.63;;
22679;SDS011;11507;44.858;10.374;2022-12-07T04:56:44;152.52;;;38.42;;
22679;SDS011;11507;44.858;10.374;2022-12-07T04:59:10;134.25;;;37.95;;
22679;SDS011;11507;44.858;10.374;2022-12-07T05:01:38;66.43;;;34.53;;
22679;SDS011;11507;44.858;10.374;2022-12-07T05:04:04;62.05;;;31.33;;
22679;SDS011;11507;44.858;10.374;2022-12-07T05:06:30;63.55;;;32.50;;
22679;SDS011;11507;44.858;10.374;2022-12-07T05:08:58;86.20;;;38.00;;
22679;SDS011;11507;44.858;10.374;2022-12-07T05:11:25;147.35;;;40.33;;
22679;SDS011;11507;44.858;10.374;2022-12-07T05:16:35;66.05;;;34.88;;
22679;SDS011;11507;44.858;10.374;2022-12-07T05:21:27;62.58;;;33.40;;
22679;SDS011;11507;44.858;10.374;2022-12-07T05:23:54;52.88;;;32.33;;
22679;SDS011;11507;44.858;10.374;2022-12-07T05:26:20;55.40;;;32.70;;
22679;SDS011;11507;44.858;10.374;2022-12-07T05:28:54;53.15;;;30.88;;
22679;SDS011;11507;44.858;10.374;2022-12-07T05:31:21;59.65;;;33.30;;
22679;SDS011;11507;44.858;10.374;2022-12-07T05:33:49;58.30;;;32.92;;
22679;SDS011;11507;44.858;10.374;2022-12-07T05:36:15;51.92;;;32.05;;
22679;SDS011;11507;44.858;10.374;2022-12-07T05:38:43;53.45;;;30.88;;
22679;SDS011;11507;44.858;10.374;2022-12-07T05:41:09;56.45;;;32.78;;
22679;SDS011;11507;44.858;10.374;2022-12-07T05:44:01;49.03;;;30.15;;
22679;SDS011;11507;44.858;10.374;2022-12-07T05:46:29;50.05;;;29.73;;
22679;SDS011;11507;44.858;10.374;2022-12-07T05:51:21;52.13;;;29.52;;
22679;SDS011;11507;44.858;10.374;2022-12-07T05:53:49;51.17;;;30.25;;
22679;SDS011;11507;44.858;10.374;2022-12-07T05:58:41;48.75;;;28.63;;
22679;SDS011;11507;44.858;10.374;2022-12-07T06:01:26;52.35;;;31.05;;
22679;SDS011;11507;44.858;10.374;2022-12-07T06:06:20;50.15;;;30.85;;
22679;SDS011;11507;44.858;10.374;2022-12-07T06:08:47;47.30;;;28.70;;
22679;SDS011;11507;44.858;10.374;2022-12-07T06:11:14;48.97;;;29.13;;
22679;SDS011;11507;44.858;10.374;2022-12-07T06:13:59;46.65;;;27.55;;
22679;SDS011;11507;44.858;10.374;2022-12-07T06:16:25;48.17;;;29.00;;
22679;SDS011;11507;44.858;10.374;2022-12-07T06:18:51;48.95;;;28.27;;
22679;SDS011;11507;44.858;10.374;2022-12-07T06:21:18;46.95;;;28.48;;
22679;SDS011;11507;44.858;10.374;2022-12-07T06:26:10;50.92;;;27.88;;
22679;SDS011;11507;44.858;10.374;2022-12-07T06:28:37;42.13;;;26.20;;
22679;SDS011;11507;44.858;10.374;2022-12-07T06:33:29;45.95;;;27.20;;
22679;SDS011;11507;44.858;10.374;2022-12-07T06:35:55;42.25;;;26.23;;
22679;SDS011;11507;44.858;10.374;2022-12-07T06:38:22;42.50;;;26.15;;
22679;SDS011;11507;44.858;10.374;2022-12-07T06:40:48;47.10;;;25.80;;
22679;SDS011;11507;44.858;10.374;2022-12-07T06:43:15;46.17;;;27.77;;
22679;SDS011;11507;44.858;10.374;2022-12-07T06:45:42;52.20;;;27.63;;
22679;SDS011;11507;44.858;10.374;2022-12-07T06:48:08;45.45;;;27.55;;
22679;SDS011;11507;44.858;10.374;2022-12-07T06:50:36;47.75;;;28.98;;
22679;SDS011;11507;44.858;10.374;2022-12-07T06:53:02;49.15;;;28.63;;
22679;SDS011;11507;44.858;10.374;2022-12-07T06:55:29;52.97;;;30.10;;
22679;SDS011;11507;44.858;10.374;2022-12-07T06:57:56;56.92;;;32.00;;
22679;SDS011;11507;44.858;10.374;2022-12-07T07:00:22;61.65;;;32.85;;
22679;SDS011;11507;44.858;10.374;2022-12-07T07:05:13;66.28;;;32.25;;
22679;SDS011;11507;44.858;10.374;2022-12-07T07:07:40;65.32;;;33.05;;
22679;SDS011;11507;44.858;10.374;2022-12-07T07:12:34;71.78;;;35.67;;
22679;SDS011;11507;44.858;10.374;2022-12-07T07:15:00;76.53;;;36.72;;
22679;SDS011;11507;44.858;10.374;2022-12-07T07:19:52;95.82;;;39.65;;
22679;SDS011;11507;44.858;10.374;2022-12-07T07:24:44;84.65;;;42.28;;
22679;SDS011;11507;44.858;10.374;2022-12-07T07:27:11;79.20;;;39.40;;
22679;SDS011;11507;44.858;10.374;2022-12-07T07:29:37;86.82;;;40.45;;
22679;SDS011;11507;44.858;10.374;2022-12-07T07:34:34;83.35;;;38.63;;
22679;SDS011;11507;44.858;10.374;2022-12-07T07:37:00;91.68;;;42.72;;
22679;SDS011;11507;44.858;10.374;2022-12-07T07:41:54;85.43;;;42.45;;
22679;SDS011;11507;44.858;10.374;2022-12-07T07:44:24;83.07;;;42.40;;
22679;SDS011;11507;44.858;10.374;2022-12-07T07:49:17;72.00;;;38.72;;
22679;SDS011;11507;44.858;10.374;2022-12-07T07:54:08;67.80;;;36.53;;
22679;SDS011;11507;44.858;10.374;2022-12-07T07:59:02;62.28;;;35.38;;
22679;SDS011;11507;44.858;10.374;2022-12-07T08:01:28;59.45;;;33.28;;
22679;SDS011;11507;44.858;10.374;2022-12-07T08:06:21;59.65;;;34.45;;
22679;SDS011;11507;44.858;10.374;2022-12-07T08:08:47;61.38;;;36.08;;
22679;SDS011;11507;44.858;10.374;2022-12-07T08:11:15;62.83;;;35.63;;
22679;SDS011;11507;44.858;10.374;2022-12-07T08:13:47;59.50;;;35.30;;
22679;SDS011;11507;44.858;10.374;2022-12-07T08:16:13;66.10;;;37.47;;
22679;SDS011;11507;44.858;10.374;2022-12-07T08:18:41;62.17;;;35.67;;
22679;SDS011;11507;44.858;10.374;2022-12-07T08:21:09;57.92;;;34.25;;
22679;SDS011;11507;44.858;10.374;2022-12-07T08:23:38;60.65;;;37.10;;
22679;SDS011;11507;44.858;10.374;2022-12-07T08:26:09;70.53;;;38.58;;
22679;SDS011;11507;44.858;10.374;2022-12-07T08:28:37;55.42;;;33.55;;
22679;SDS011;11507;44.858;10.374;2022-12-07T08:33:31;54.33;;;32.92;;
22679;SDS011;11507;44.858;10.374;2022-12-07T08:36:02;58.83;;;34.55;;
22679;SDS011;11507;44.858;10.374;2022-12-07T08:38:31;58.60;;;34.83;;
22679;SDS011;11507;44.858;10.374;2022-12-07T08:43:24;55.20;;;33.15;;
22679;SDS011;11507;44.858;10.374;2022-12-07T08:45:59;61.35;;;36.75;;
22679;SDS011;11507;44.858;10.374;2022-12-07T08:48:50;60.90;;;36.80;;
22679;SDS011;11507;44.858;10.374;2022-12-07T08:51:41;62.88;;;35.55;;
22679;SDS011;11507;44.858;10.374;2022-12-07T08:54:09;52.80;;;32.70;;
22679;SDS011;11507;44.858;10.374;2022-12-07T08:56:38;49.05;;;30.58;;
22679;SDS011;11507;44.858;10.374;2022-12-07T08:59:04;52.38;;;32.15;;
22679;SDS011;11507;44.858;10.374;2022-12-07T09:01:31;51.35;;;31.13;;
22679;SDS011;11507;44.858;10.374;2022-12-07T09:04:00;49.33;;;30.77;;
22679;SDS011;11507;44.858;10.374;2022-12-07T09:06:28;55.22;;;31.30;;
22679;SDS011;11507;44.858;10.374;2022-12-07T09:08:56;52.08;;;32.08;;
22679;SDS011;11507;44.858;10.374;2022-12-07T09:13:56;57.22;;;34.05;;
22679;SDS011;11507;44.858;10.374;2022-12-07T09:16:22;53.05;;;32.50;;
22679;SDS011;11507;44.858;10.374;2022-12-07T09:21:17;53.00;;;33.08;;
22679;SDS011;11507;44.858;10.374;2022-12-07T09:23:43;52.53;;;29.38;;
22679;SDS011;11507;44.858;10.374;2022-12-07T09:26:10;55.13;;;32.00;;
22679;SDS011;11507;44.858;10.374;2022-12-07T09:28:36;47.85;;;27.88;;
22679;SDS011;11507;44.858;10.374;2022-12-07T09:31:04;51.25;;;27.70;;
22679;SDS011;11507;44.858;10.374;2022-12-07T09:33:33;48.08;;;29.85;;
22679;SDS011;11507;44.858;10.374;2022-12-07T09:36:03;52.80;;;30.90;;
22679;SDS011;11507;44.858;10.374;2022-12-07T09:38:29;55.15;;;30.35;;
22679;SDS011;11507;44.858;10.374;2022-12-07T09:41:03;50.55;;;29.15;;
22679;SDS011;11507;44.858;10.374;2022-12-07T09:43:34;48.28;;;29.48;;
22679;SDS011;11507;44.858;10.374;2022-12-07T09:46:02;53.90;;;30.88;;
22679;SDS011;11507;44.858;10.374;2022-12-07T09:48:31;51.95;;;29.33;;
22679;SDS011;11507;44.858;10.374;2022-12-07T09:51:00;47.05;;;28.70;;
22679;SDS011;11507;44.858;10.374;2022-12-07T09:53:34;48.90;;;27.50;;
22679;SDS011;11507;44.858;10.374;2022-12-07T09:56:03;46.30;;;27.02;;
22679;SDS011;11507;44.858;10.374;2022-12-07T09:58:31;42.70;;;25.58;;
22679;SDS011;11507;44.858;10.374;2022-12-07T10:01:00;47.58;;;26.45;;
22679;SDS011;11507;44.858;10.374;2022-12-07T10:03:27;53.42;;;30.60;;
22679;SDS011;11507;44.858;10.374;2022-12-07T10:05:54;48.85;;;27.30;;
22679;SDS011;11507;44.858;10.374;2022-12-07T10:08:21;60.50;;;34.83;;
22679;SDS011;11507;44.858;10.374;2022-12-07T10:13:20;51.53;;;29.10;;
22679;SDS011;11507;44.858;10.374;2022-12-07T10:15:54;54.38;;;32.53;;
22679;SDS011;11507;44.858;10.374;2022-12-07T10:18:38;55.60;;;31.40;;
22679;SDS011;11507;44.858;10.374;2022-12-07T10:21:14;49.67;;;28.60;;
22679;SDS011;11507;44.858;10.374;2022-12-07T10:29:01;48.90;;;27.20;;
22679;SDS011;11507;44.858;10.374;2022-12-07T10:31:58;48.53;;;27.20;;
22679;SDS011;11507;44.858;10.374;2022-12-07T10:34:31;43.97;;;24.83;;
22679;SDS011;11507;44.858;10.374;2022-12-07T10:42:23;47.38;;;27.10;;
22679;SDS011;11507;44.858;10.374;2022-12-07T10:50:15;44.55;;;24.55;;
22679;SDS011;11507;44.858;10.374;2022-12-07T11:11:53;49.85;;;27.60;;
22679;SDS011;11507;44.858;10.374;2022-12-07T11:15:08;51.08;;;26.63;;
22679;SDS011;11507;44.858;10.374;2022-12-07T11:26:06;58.13;;;32.00;;
22679;SDS011;11507;44.858;10.374;2022-12-07T11:28:59;56.92;;;31.38;;
22679;SDS011;11507;44.858;10.374;2022-12-07T11:31:41;51.15;;;27.10;;
22679;SDS011;11507;44.858;10.374;2022-12-07T11:37:30;45.45;;;24.85;;
22679;SDS011;11507;44.858;10.374;2022-12-07T11:40:24;48.20;;;26.23;;
22679;SDS011;11507;44.858;10.374;2022-12-07T11:42:49;49.00;;;25.55;;
22679;SDS011;11507;44.858;10.374;2022-12-07T11:45:26;55.63;;;30.05;;
22679;SDS011;11507;44.858;10.374;2022-12-07T11:48:01;45.28;;;25.38;;
22679;SDS011;11507;44.858;10.374;2022-12-07T11:56:15;47.65;;;25.35;;
22679;SDS011;11507;44.858;10.374;2022-12-07T11:58:49;52.28;;;28.75;;
22679;SDS011;11507;44.858;10.374;2022-12-07T12:06:45;48.67;;;27.30;;
22679;SDS011;11507;44.858;10.374;2022-12-07T12:20:20;49.88;;;25.52;;
22679;SDS011;11507;44.858;10.374;2022-12-07T12:28:20;61.08;;;30.20;;
22679;SDS011;11507;44.858;10.374;2022-12-07T12:31:04;49.60;;;27.10;;
22679;SDS011;11507;44.858;10.374;2022-12-07T12:33:33;55.80;;;29.10;;
22679;SDS011;11507;44.858;10.374;2022-12-07T12:38:49;58.33;;;30.73;;
22679;SDS011;11507;44.858;10.374;2022-12-07T12:46:52;64.93;;;33.58;;
22679;SDS011;11507;44.858;10.374;2022-12-07T12:54:14;75.18;;;32.58;;
22679;SDS011;11507;44.858;10.374;2022-12-07T12:57:03;77.53;;;36.75;;
22679;SDS011;11507;44.858;10.374;2022-12-07T13:02:21;55.70;;;29.00;;
22679;SDS011;11507;44.858;10.374;2022-12-07T13:10:21;49.85;;;26.30;;
22679;SDS011;11507;44.858;10.374;2022-12-07T13:15:51;50.10;;;26.80;;
22679;SDS011;11507;44.858;10.374;2022-12-07T13:21:40;53.45;;;27.90;;
22679;SDS011;11507;44.858;10.374;2022-12-07T13:23:58;54.08;;;27.85;;
22679;SDS011;11507;44.858;10.374;2022-12-07T13:26:39;52.67;;;28.15;;
22679;SDS011;11507;44.858;10.374;2022-12-07T13:29:12;53.72;;;27.40;;
22679;SDS011;11507;44.858;10.374;2022-12-07T13:37:20;57.92;;;27.67;;
22679;SDS011;11507;44.858;10.374;2022-12-07T13:39:51;51.58;;;26.77;;
22679;SDS011;11507;44.858;10.374;2022-12-07T13:42:27;57.03;;;27.63;;
22679;SDS011;11507;44.858;10.374;2022-12-07T13:44:57;52.50;;;27.50;;
22679;SDS011;11507;44.858;10.374;2022-12-07T13:47:43;48.85;;;26.50;;
22679;SDS011;11507;44.858;10.374;2022-12-07T13:50:25;59.47;;;28.77;;
22679;SDS011;11507;44.858;10.374;2022-12-07T13:52:57;73.07;;;32.28;;
22679;SDS011;11507;44.858;10.374;2022-12-07T13:55:24;66.35;;;31.48;;
22679;SDS011;11507;44.858;10.374;2022-12-07T13:57:52;54.08;;;27.60;;
22679;SDS011;11507;44.858;10.374;2022-12-07T14:00:20;49.58;;;26.17;;
22679;SDS011;11507;44.858;10.374;2022-12-07T14:03:00;52.92;;;26.25;;
22679;SDS011;11507;44.858;10.374;2022-12-07T14:05:27;53.80;;;27.23;;
22679;SDS011;11507;44.858;10.374;2022-12-07T14:08:05;47.38;;;25.88;;
22679;SDS011;11507;44.858;10.374;2022-12-07T14:10:36;51.05;;;26.88;;
22679;SDS011;11507;44.858;10.374;2022-12-07T14:14:10;50.22;;;27.40;;
22679;SDS011;11507;44.858;10.374;2022-12-07T14:16:27;53.53;;;26.98;;
22679;SDS011;11507;44.858;10.374;2022-12-07T14:18:56;53.35;;;27.80;;
22679;SDS011;11507;44.858;10.374;2022-12-07T14:21:25;54.28;;;26.95;;
22679;SDS011;11507;44.858;10.374;2022-12-07T14:24:04;57.45;;;26.77;;
22679;SDS011;11507;44.858;10.374;2022-12-07T14:26:33;56.85;;;29.45;;
22679;SDS011;11507;44.858;10.374;2022-12-07T14:31:43;57.53;;;29.52;;
22679;SDS011;11507;44.858;10.374;2022-12-07T14:36:38;63.60;;;31.58;;
22679;SDS011;11507;44.858;10.374;2022-12-07T14:39:06;59.53;;;30.23;;
22679;SDS011;11507;44.858;10.374;2022-12-07T14:41:32;75.00;;;37.00;;
22679;SDS011;11507;44.858;10.374;2022-12-07T14:44:23;61.63;;;29.42;;
22679;SDS011;11507;44.858;10.374;2022-12-07T14:46:50;60.22;;;28.42;;
22679;SDS011;11507;44.858;10.374;2022-12-07T14:49:17;63.53;;;31.13;;
22679;SDS011;11507;44.858;10.374;2022-12-07T14:51:44;69.30;;;32.75;;
22679;SDS011;11507;44.858;10.374;2022-12-07T14:54:14;66.22;;;30.30;;
22679;SDS011;11507;44.858;10.374;2022-12-07T14:56:43;63.15;;;30.35;;
22679;SDS011;11507;44.858;10.374;2022-12-07T14:59:10;62.85;;;29.92;;
22679;SDS011;11507;44.858;10.374;2022-12-07T15:01:36;64.85;;;29.92;;
22679;SDS011;11507;44.858;10.374;2022-12-07T15:04:02;58.60;;;29.00;;
22679;SDS011;11507;44.858;10.374;2022-12-07T15:08:54;63.92;;;31.48;;
22679;SDS011;11507;44.858;10.374;2022-12-07T15:13:46;68.03;;;35.03;;
22679;SDS011;11507;44.858;10.374;2022-12-07T15:16:31;67.55;;;33.45;;
22679;SDS011;11507;44.858;10.374;2022-12-07T15:18:57;69.97;;;31.83;;
22679;SDS011;11507;44.858;10.374;2022-12-07T15:21:23;66.63;;;30.95;;
22679;SDS011;11507;44.858;10.374;2022-12-07T15:26:15;73.18;;;35.78;;
22679;SDS011;11507;44.858;10.374;2022-12-07T15:31:14;65.38;;;31.73;;
22679;SDS011;11507;44.858;10.374;2022-12-07T15:33:43;68.43;;;32.03;;
22679;SDS011;11507;44.858;10.374;2022-12-07T15:36:20;66.15;;;33.08;;
22679;SDS011;11507;44.858;10.374;2022-12-07T15:38:52;64.13;;;29.45;;
22679;SDS011;11507;44.858;10.374;2022-12-07T15:41:21;68.05;;;30.77;;
22679;SDS011;11507;44.858;10.374;2022-12-07T15:43:48;70.03;;;31.05;;
22679;SDS011;11507;44.858;10.374;2022-12-07T15:46:33;62.67;;;28.48;;
22679;SDS011;11507;44.858;10.374;2022-12-07T15:49:06;61.42;;;28.98;;
22679;SDS011;11507;44.858;10.374;2022-12-07T15:51:41;63.92;;;31.38;;
22679;SDS011;11507;44.858;10.374;2022-12-07T15:54:24;74.57;;;30.63;;
22679;SDS011;11507;44.858;10.374;2022-12-07T15:56:53;67.32;;;31.75;;
22679;SDS011;11507;44.858;10.374;2022-12-07T15:59:20;67.97;;;31.45;;
22679;SDS011;11507;44.858;10.374;2022-12-07T16:01:46;67.55;;;31.90;;
22679;SDS011;11507;44.858;10.374;2022-12-07T16:06:38;68.05;;;30.17;;
22679;SDS011;11507;44.858;10.374;2022-12-07T16:09:04;74.30;;;34.65;;
22679;SDS011;11507;44.858;10.374;2022-12-07T16:11:31;71.18;;;34.20;;
22679;SDS011;11507;44.858;10.374;2022-12-07T16:13:57;77.88;;;37.33;;
22679;SDS011;11507;44.858;10.374;2022-12-07T16:18:50;73.45;;;34.92;;
22679;SDS011;11507;44.858;10.374;2022-12-07T16:21:16;74.25;;;31.65;;
22679;SDS011;11507;44.858;10.374;2022-12-07T16:23:43;75.93;;;34.58;;
22679;SDS011;11507;44.858;10.374;2022-12-07T16:26:14;64.20;;;28.83;;
22679;SDS011;11507;44.858;10.374;2022-12-07T16:28:41;69.18;;;29.73;;
22679;SDS011;11507;44.858;10.374;2022-12-07T16:31:09;69.55;;;30.33;;
22679;SDS011;11507;44.858;10.374;2022-12-07T16:33:43;66.75;;;30.08;;
22679;SDS011;11507;44.858;10.374;2022-12-07T16:36:10;68.88;;;30.67;;
22679;SDS011;11507;44.858;10.374;2022-12-07T16:38:38;69.55;;;33.20;;
22679;SDS011;11507;44.858;10.374;2022-12-07T16:41:05;75.65;;;33.90;;
22679;SDS011;11507;44.858;10.374;2022-12-07T16:43:32;85.63;;;39.17;;
22679;SDS011;11507;44.858;10.374;2022-12-07T16:45:59;71.75;;;32.28;;
22679;SDS011;11507;44.858;10.374;2022-12-07T16:50:51;77.10;;;34.63;;
22679;SDS011;11507;44.858;10.374;2022-12-07T16:53:19;79.15;;;36.50;;
22679;SDS011;11507;44.858;10.374;2022-12-07T16:55:46;85.85;;;41.85;;
22679;SDS011;11507;44.858;10.374;2022-12-07T16:58:13;91.25;;;40.80;;
22679;SDS011;11507;44.858;10.374;2022-12-07T17:00:42;86.38;;;39.63;;
22679;SDS011;11507;44.858;10.374;2022-12-07T17:03:09;78.10;;;35.00;;
22679;SDS011;11507;44.858;10.374;2022-12-07T17:05:39;71.30;;;32.70;;
22679;SDS011;11507;44.858;10.374;2022-12-07T17:08:06;73.95;;;31.83;;
22679;SDS011;11507;44.858;10.374;2022-12-07T17:10:34;70.57;;;32.40;;
22679;SDS011;11507;44.858;10.374;2022-12-07T17:13:02;77.82;;;34.30;;
22679;SDS011;11507;44.858;10.374;2022-12-07T17:16:03;76.63;;;34.58;;
22679;SDS011;11507;44.858;10.374;2022-12-07T17:18:31;77.35;;;34.17;;
22679;SDS011;11507;44.858;10.374;2022-12-07T17:21:05;88.32;;;37.80;;
22679;SDS011;11507;44.858;10.374;2022-12-07T17:23:34;87.97;;;38.70;;
22679;SDS011;11507;44.858;10.374;2022-12-07T17:26:05;96.90;;;39.17;;
22679;SDS011;11507;44.858;10.374;2022-12-07T17:28:44;101.07;;;39.67;;
22679;SDS011;11507;44.858;10.374;2022-12-07T17:31:10;97.75;;;40.53;;
22679;SDS011;11507;44.858;10.374;2022-12-07T17:33:38;89.95;;;40.15;;
22679;SDS011;11507;44.858;10.374;2022-12-07T17:38:37;97.68;;;42.50;;
22679;SDS011;11507;44.858;10.374;2022-12-07T17:41:37;95.18;;;42.20;;
22679;SDS011;11507;44.858;10.374;2022-12-07T17:44:16;90.63;;;40.38;;
22679;SDS011;11507;44.858;10.374;2022-12-07T17:46:46;91.70;;;41.35;;
22679;SDS011;11507;44.858;10.374;2022-12-07T17:49:14;89.60;;;41.28;;
22679;SDS011;11507;44.858;10.374;2022-12-07T17:51:40;88.22;;;38.75;;
22679;SDS011;11507;44.858;10.374;2022-12-07T17:54:25;91.47;;;39.45;;
22679;SDS011;11507;44.858;10.374;2022-12-07T17:59:18;83.25;;;38.25;;
22679;SDS011;11507;44.858;10.374;2022-12-07T18:01:44;98.65;;;43.22;;
22679;SDS011;11507;44.858;10.374;2022-12-07T18:04:10;84.75;;;37.45;;
22679;SDS011;11507;44.858;10.374;2022-12-07T18:06:38;89.40;;;41.85;;
22679;SDS011;11507;44.858;10.374;2022-12-07T18:09:04;87.72;;;37.63;;
22679;SDS011;11507;44.858;10.374;2022-12-07T18:11:31;85.55;;;38.90;;
22679;SDS011;11507;44.858;10.374;2022-12-07T18:13:58;85.22;;;37.45;;
22679;SDS011;11507;44.858;10.374;2022-12-07T18:18:51;80.82;;;39.08;;
22679;SDS011;11507;44.858;10.374;2022-12-07T18:21:19;92.07;;;42.22;;
22679;SDS011;11507;44.858;10.374;2022-12-07T18:23:48;97.20;;;41.80;;
22679;SDS011;11507;44.858;10.374;2022-12-07T18:26:17;85.90;;;36.63;;
22679;SDS011;11507;44.858;10.374;2022-12-07T18:28:44;86.25;;;36.13;;
22679;SDS011;11507;44.858;10.374;2022-12-07T18:31:11;89.28;;;37.30;;
22679;SDS011;11507;44.858;10.374;2022-12-07T18:33:38;114.97;;;47.53;;
22679;SDS011;11507;44.858;10.374;2022-12-07T18:36:05;89.75;;;38.45;;
22679;SDS011;11507;44.858;10.374;2022-12-07T18:38:33;80.38;;;34.28;;
22679;SDS011;11507;44.858;10.374;2022-12-07T18:41:00;89.53;;;35.85;;
22679;SDS011;11507;44.858;10.374;2022-12-07T18:43:28;88.60;;;38.75;;
22679;SDS011;11507;44.858;10.374;2022-12-07T18:45:54;80.47;;;35.90;;
22679;SDS011;11507;44.858;10.374;2022-12-07T18:48:21;99.40;;;41.17;;
22679;SDS011;11507;44.858;10.374;2022-12-07T18:50:58;91.50;;;38.33;;
22679;SDS011;11507;44.858;10.374;2022-12-07T18:53:25;86.18;;;37.47;;